Time;durP1;ratioP1;P1;durP2;ratioP2;P2;SDS_P1;SDS_P2;PMS_P1;PMS_P2;Temp;Humidity;BMP_temperature;BMP_pressure;BME280_temperature;BME280_humidity;BME280_pressure;Samples;Min_cycle;Max_cycle;Signal;HPM_P1;HPM_P2
2022/03/12 00:01:08;;;;;;;5.97;4.17;;;1.30;95.90;;;2.10;41.63;-19798.47;5093720;28;20287;-61
2022/03/12 00:03:37;;;;;;;5.90;4.00;;;1.30;95.90;;;2.05;41.27;-19796.56;5092427;28;20227;-59
2022/03/12 00:06:06;;;;;;;6.00;3.73;;;1.30;95.70;;;1.90;41.80;-19791.63;5092850;28;20261;-60
2022/03/12 00:08:42;;;;;;;5.17;4.10;;;1.30;95.70;;;1.94;41.42;-19792.81;5092547;28;20312;-62
2022/03/12 00:11:15;;;;;;;5.70;4.17;;;1.30;95.70;;;1.88;41.45;-19790.94;5092977;28;20283;-60
2022/03/12 00:13:45;;;;;;;5.10;3.60;;;1.20;95.60;;;1.99;41.24;-19794.69;5092395;28;20333;-60
2022/03/12 00:16:16;;;;;;;6.23;4.27;;;1.20;95.80;;;2.21;40.46;-19802.06;5093382;28;20278;-60
2022/03/12 00:18:48;;;;;;;6.73;4.37;;;1.30;95.40;;;2.35;40.21;-19807.00;5092854;28;20207;-62
2022/03/12 00:21:16;;;;;;;4.27;3.63;;;1.40;95.30;;;2.31;40.35;-19805.47;5092598;28;20310;-61
2022/03/12 00:23:50;;;;;;;6.63;4.20;;;1.40;95.20;;;2.42;40.06;-19809.22;5092218;28;20324;-62
2022/03/12 00:26:23;;;;;;;5.07;3.63;;;1.50;95.10;;;2.24;40.35;-19803.25;5091222;28;20728;-61
2022/03/12 00:28:53;;;;;;;5.57;3.97;;;1.50;95.00;;;2.21;40.65;-19802.06;5092039;28;20223;-62
2022/03/12 00:31:22;;;;;;;5.47;4.00;;;1.40;95.20;;;2.06;40.83;-19797.09;5092403;28;20199;-60
2022/03/12 00:33:50;;;;;;;5.37;3.80;;;1.30;95.30;;;2.08;40.81;-19797.78;5092718;28;20283;-61
2022/03/12 00:36:19;;;;;;;4.40;3.43;;;1.30;95.40;;;2.05;40.82;-19796.56;5091971;28;20242;-61
2022/03/12 00:38:47;;;;;;;6.03;3.80;;;1.30;95.30;;;2.06;40.67;-19797.09;5092140;28;20311;-62
2022/03/12 00:41:17;;;;;;;5.30;3.60;;;1.30;95.30;;;2.00;41.02;-19795.03;5092228;28;20258;-61
2022/03/12 00:43:46;;;;;;;5.67;3.43;;;1.20;95.40;;;1.96;40.94;-19793.50;5091672;28;20685;-61
2022/03/12 00:46:15;;;;;;;6.00;4.17;;;1.20;95.50;;;1.97;40.89;-19794.00;5092561;28;20298;-60
2022/03/12 00:48:43;;;;;;;4.13;3.53;;;1.20;95.40;;;1.89;40.60;-19791.28;5091628;28;20229;-61
2022/03/12 00:51:12;;;;;;;5.90;3.97;;;1.20;95.10;;;1.81;40.94;-19788.38;5091848;28;20224;-62
2022/03/12 00:53:42;;;;;;;5.33;3.70;;;1.10;95.10;;;1.86;39.95;-19790.09;5091142;28;20219;-60
2022/03/12 00:56:11;;;;;;;4.57;3.63;;;1.10;94.70;;;1.88;40.14;-19790.75;5091298;28;20219;-61
2022/03/12 00:58:45;;;;;;;4.90;3.70;;;1.10;94.70;;;1.87;39.84;-19790.44;5091378;28;20231;-60
2022/03/12 01:01:16;;;;;;;4.53;3.87;;;1.10;94.60;;;1.95;39.68;-19793.16;5092719;28;20192;-60
2022/03/12 01:03:44;;;;;;;5.40;3.50;;;1.10;94.60;;;2.16;39.32;-19800.34;5091969;28;20216;-61
2022/03/12 01:06:18;;;;;;;5.03;3.73;;;1.20;94.50;;;2.00;39.60;-19795.03;5091874;28;20248;-61
2022/03/12 01:08:47;;;;;;;5.17;3.50;;;1.20;94.30;;;1.86;39.35;-19790.09;5091517;28;20310;-61
2022/03/12 01:11:15;;;;;;;7.17;3.50;;;1.20;94.10;;;1.86;39.17;-19790.25;5091574;28;20307;-61
2022/03/12 01:13:43;;;;;;;4.93;3.50;;;1.20;93.90;;;1.93;38.71;-19792.66;5091018;28;20238;-62
2022/03/12 01:16:11;;;;;;;5.63;3.77;;;1.20;93.90;;;2.14;38.34;-19799.81;5091864;28;20644;-59
2022/03/12 01:18:41;;;;;;;4.57;3.47;;;1.30;93.70;;;2.00;38.51;-19795.03;5091353;28;20234;-61
2022/03/12 01:21:17;;;;;;;4.60;3.47;;;1.30;93.50;;;2.15;37.63;-19800.16;5091695;28;20331;-59
2022/03/12 01:23:47;;;;;;;4.20;3.50;;;1.30;93.20;;;2.11;37.50;-19798.81;5091260;28;20288;-61
2022/03/12 01:26:17;;;;;;;4.63;3.33;;;1.30;93.10;;;2.09;37.44;-19798.13;5091350;28;20675;-61
2022/03/12 01:28:46;;;;;;;6.47;3.57;;;1.30;92.80;;;1.98;37.52;-19794.34;5090919;28;20227;-62
2022/03/12 01:31:14;;;;;;;5.03;3.23;;;1.30;92.70;;;2.04;37.39;-19796.41;5091718;28;20400;-61
2022/03/12 01:33:44;;;;;;;4.83;3.30;;;1.30;92.80;;;1.91;37.56;-19791.97;5091248;28;20220;-60
2022/03/12 01:36:13;;;;;;;4.43;3.27;;;1.30;92.70;;;1.96;37.07;-19793.50;5090867;28;20230;-63
2022/03/12 01:38:49;;;;;;;5.43;3.50;;;1.20;92.50;;;2.18;36.26;-19801.19;5091113;28;20230;-61
2022/03/12 01:41:22;;;;;;;5.77;3.20;;;1.30;92.20;;;2.21;35.55;-19802.22;5091215;28;20302;-61
2022/03/12 01:43:51;;;;;;;4.63;3.20;;;1.40;91.70;;;2.08;36.09;-19797.59;5090860;28;20234;-60
2022/03/12 01:46:20;;;;;;;3.23;2.80;;;1.40;91.60;;;2.14;35.57;-19799.81;5090870;28;20643;-62
2022/03/12 01:48:52;;;;;;;5.00;3.10;;;1.40;91.50;;;2.40;35.19;-19808.72;5091496;28;20207;-62
2022/03/12 01:51:20;;;;;;;5.00;3.53;;;1.50;91.40;;;2.40;35.46;-19808.56;5091046;28;20584;-60
2022/03/12 01:53:48;;;;;;;5.10;4.03;;;1.50;91.30;;;2.13;35.70;-19799.31;5090809;28;20224;-60
2022/03/12 01:56:17;;;;;;;5.20;3.10;;;1.50;91.40;;;2.21;35.53;-19802.22;5090717;28;20306;-60
2022/03/12 01:58:48;;;;;;;4.63;3.10;;;1.40;91.30;;;2.03;36.02;-19795.91;5090604;28;20472;-62
2022/03/12 02:01:19;;;;;;;5.77;3.23;;;1.40;91.50;;;1.93;36.03;-19792.66;5091664;28;20262;-61
2022/03/12 02:03:49;;;;;;;4.10;3.07;;;1.30;91.40;;;1.80;36.44;-19788.19;5091167;28;20273;-60
2022/03/12 02:06:19;;;;;;;5.83;2.90;;;1.20;91.60;;;1.87;36.01;-19790.44;5090627;28;20229;-61
2022/03/12 02:08:48;;;;;;;5.27;3.13;;;1.20;91.50;;;1.91;36.00;-19791.78;5090570;28;20322;-61
2022/03/12 02:11:20;;;;;;;4.30;2.90;;;1.20;91.30;;;2.02;35.55;-19795.72;5091076;28;20707;-60
2022/03/12 02:13:48;;;;;;;4.67;3.10;;;1.20;91.30;;;1.80;35.73;-19788.19;5090346;28;20261;-61
2022/03/12 02:16:16;;;;;;;4.60;3.20;;;1.20;91.30;;;1.93;35.49;-19792.47;5090859;28;20211;-61
2022/03/12 02:18:49;;;;;;;4.07;3.00;;;1.20;91.30;;;1.71;35.98;-19785.13;5090966;28;20258;-61
2022/03/12 02:21:34;;;;;;;5.40;3.40;;;1.10;91.20;;;1.81;35.40;-19788.53;5090921;28;20219;-60
2022/03/12 02:24:08;;;;;;;4.80;2.80;;;1.10;90.90;;;1.78;35.60;-19787.53;5090608;28;20327;-61
2022/03/12 02:26:38;;;;;;;4.37;3.10;;;1.10;91.00;;;1.89;35.09;-19791.28;5090780;28;20674;-61
2022/03/12 02:29:09;;;;;;;4.33;3.07;;;1.20;90.70;;;1.92;34.75;-19792.31;5090453;28;20235;-61
2022/03/12 02:31:39;;;;;;;4.70;2.70;;;1.20;90.60;;;2.08;34.74;-19797.78;5090291;28;20714;-61
2022/03/12 02:34:10;;;;;;;4.10;2.90;;;1.20;90.60;;;2.14;34.13;-19799.81;5090831;28;20253;-61
2022/03/12 02:36:40;;;;;;;4.20;3.10;;;1.30;90.30;;;2.10;33.79;-19798.47;5090378;28;20224;-60
2022/03/12 02:39:11;;;;;;;3.97;3.00;;;1.30;90.10;;;1.96;34.13;-19793.66;5090462;28;20282;-61
2022/03/12 02:41:39;;;;;;;3.97;3.07;;;1.30;89.80;;;2.28;33.72;-19804.59;5090742;28;20313;-61
2022/03/12 02:44:11;;;;;;;3.27;2.70;;;1.40;89.80;;;2.04;34.34;-19796.25;5089901;28;20227;-60
2022/03/12 02:46:41;;;;;;;4.07;3.17;;;1.40;90.10;;;2.08;33.98;-19797.78;5090567;28;20256;-60
2022/03/12 02:49:09;;;;;;;3.87;3.10;;;1.30;89.70;;;2.08;33.40;-19797.78;5092973;28;20198;-63
2022/03/12 02:51:37;;;;;;;4.17;3.20;;;1.40;89.00;;;2.09;33.80;-19797.94;5094221;28;20558;-61
2022/03/12 02:54:05;;;;;;;4.43;2.80;;;1.40;89.80;;;2.03;34.40;-19796.06;5094241;28;20299;-61
2022/03/12 02:56:35;;;;;;;3.80;3.07;;;1.30;90.10;;;1.83;34.18;-19789.22;5094373;28;20238;-61
2022/03/12 02:59:13;;;;;;;3.90;3.07;;;1.30;89.60;;;1.99;34.88;-19794.69;5094168;28;20307;-60
2022/03/12 03:01:44;;;;;;;5.53;2.90;;;1.20;90.20;;;1.90;34.25;-19791.63;5094149;28;20235;-59
2022/03/12 03:04:12;;;;;;;4.67;3.10;;;1.20;90.10;;;1.77;34.51;-19787.19;5094451;28;20576;-61
2022/03/12 03:06:41;;;;;;;4.40;2.83;;;1.20;90.00;;;1.55;34.74;-19779.47;5094013;28;20302;-62
2022/03/12 03:09:09;;;;;;;5.63;2.97;;;1.10;90.20;;;1.73;34.90;-19785.63;5094232;28;20310;-60
2022/03/12 03:11:39;;;;;;;4.10;3.17;;;1.00;90.20;;;1.89;34.51;-19791.09;5094105;28;20251;-62
2022/03/12 03:14:12;;;;;;;4.33;2.90;;;1.10;90.30;;;1.89;34.51;-19791.28;5093817;28;20314;-61
2022/03/12 03:16:40;;;;;;;3.33;3.03;;;1.10;90.20;;;1.73;35.06;-19785.63;5093555;28;20239;-60
2022/03/12 03:19:09;;;;;;;6.30;3.00;;;1.10;90.30;;;1.72;34.79;-19785.47;5094353;28;20203;-62
2022/03/12 03:21:38;;;;;;;3.93;3.40;;;1.00;90.60;;;1.82;34.47;-19788.88;5093481;28;20377;-62
2022/03/12 03:24:07;;;;;;;4.47;3.17;;;1.10;90.10;;;1.80;34.79;-19788.19;5093531;28;20252;-62
2022/03/12 03:26:58;;;;;;;4.20;2.87;;;1.10;90.30;;;2.06;34.51;-19796.91;5093586;28;20250;-61
2022/03/12 03:29:30;;;;;;;3.57;2.70;;;1.20;90.30;;;1.94;34.20;-19793.00;5089609;28;20578;-61
2022/03/12 03:32:01;;;;;;;4.20;3.10;;;1.20;90.30;;;1.84;34.92;-19789.56;5093227;28;20223;-61
2022/03/12 03:34:32;;;;;;;3.93;3.00;;;1.20;90.40;;;1.91;34.57;-19791.97;5093415;28;20180;-61
2022/03/12 03:37:01;;;;;;;3.60;3.13;;;1.20;90.30;;;2.19;34.00;-19801.53;5094100;28;20291;-61
2022/03/12 03:39:29;;;;;;;4.10;3.20;;;1.30;90.10;;;2.27;33.95;-19804.09;5092881;28;20220;-62
2022/03/12 03:41:58;;;;;;;4.87;3.10;;;1.40;90.10;;;2.23;33.70;-19802.91;5093132;28;20228;-61
2022/03/12 03:44:29;;;;;;;5.27;3.50;;;1.50;89.80;;;2.07;34.34;-19797.44;5093117;28;20238;-61
2022/03/12 03:46:57;;;;;;;4.53;3.07;;;1.50;90.00;;;2.27;34.08;-19804.28;5092963;28;20234;-60
2022/03/12 03:49:26;;;;;;;4.30;3.17;;;1.50;90.00;;;2.23;34.15;-19802.91;5093292;28;20214;-60
2022/03/12 03:51:56;;;;;;;6.10;3.47;;;1.50;89.80;;;2.16;34.05;-19800.34;5093937;28;20284;-61
2022/03/12 03:54:24;;;;;;;4.37;3.13;;;1.50;89.50;;;2.11;33.74;-19798.63;5093385;28;20228;-62
2022/03/12 03:56:52;;;;;;;5.50;3.20;;;1.40;89.40;;;1.92;34.98;-19792.31;5092817;28;20234;-60
2022/03/12 03:59:21;;;;;;;5.20;3.30;;;1.40;90.30;;;2.14;34.24;-19799.66;5092712;28;20703;-61
2022/03/12 04:01:50;;;;;;;5.70;3.07;;;1.30;90.00;;;2.01;34.35;-19795.22;5093069;28;20223;-60
2022/03/12 04:04:19;;;;;;;4.50;3.03;;;1.40;90.00;;;1.94;34.49;-19793.00;5093480;28;20252;-61
2022/03/12 04:06:47;;;;;;;4.93;3.00;;;1.30;90.10;;;2.08;34.28;-19797.59;5093034;28;20259;-61
2022/03/12 04:09:16;;;;;;;3.83;3.17;;;1.30;90.10;;;1.97;34.46;-19794.00;5092537;28;20310;-61
2022/03/12 04:11:44;;;;;;;3.93;3.00;;;1.30;90.20;;;1.75;35.01;-19786.31;5092434;28;20958;-61
2022/03/12 04:14:12;;;;;;;3.90;2.90;;;1.20;90.30;;;1.64;35.59;-19782.56;5092502;28;20594;-60
2022/03/12 04:16:46;;;;;;;4.23;3.40;;;1.10;90.50;;;1.87;35.02;-19790.59;5092625;28;20223;-60
2022/03/12 04:19:14;;;;;;;4.83;3.10;;;1.10;90.50;;;1.78;35.55;-19787.53;5093268;28;20299;-62
2022/03/12 04:21:43;;;;;;;4.57;3.20;;;1.10;90.70;;;1.65;35.67;-19782.91;5092332;28;20225;-60
2022/03/12 04:24:11;;;;;;;3.90;3.20;;;1.10;90.70;;;1.50;36.06;-19777.94;5092728;28;20319;-60
2022/03/12 04:26:40;;;;;;;3.57;3.10;;;1.00;91.00;;;1.52;36.00;-19778.63;5092441;28;20223;-61
2022/03/12 04:29:09;;;;;;;4.80;3.53;;;0.90;91.00;;;1.62;36.05;-19782.06;5092608;28;20303;-61
2022/03/12 04:31:37;;;;;;;4.10;3.43;;;0.90;90.80;;;1.55;35.89;-19779.47;5091977;28;20722;-60
2022/03/12 04:34:06;;;;;;;5.03;2.83;;;0.90;91.10;;;1.56;36.42;-19780.00;5092993;28;20205;-61
2022/03/12 04:36:36;;;;;;;3.67;3.00;;;0.90;91.20;;;1.55;36.08;-19779.66;5091849;28;20250;-61
2022/03/12 04:39:05;;;;;;;6.43;3.30;;;0.90;91.10;;;1.54;36.24;-19779.31;5092368;28;20740;-60
2022/03/12 04:41:35;;;;;;;3.97;3.23;;;0.80;91.10;;;1.60;35.91;-19781.19;5092407;28;20251;-61
2022/03/12 04:44:04;;;;;;;3.93;2.90;;;0.80;91.20;;;1.55;36.06;-19779.47;5092198;28;20311;-60
2022/03/12 04:46:33;;;;;;;4.47;3.27;;;0.90;91.20;;;1.57;36.25;-19780.34;5092156;28;20239;-60
2022/03/12 04:49:01;;;;;;;3.53;2.73;;;0.80;91.20;;;1.46;36.41;-19776.41;5092548;28;20622;-61
2022/03/12 04:51:31;;;;;;;4.13;3.27;;;0.80;91.20;;;1.66;35.98;-19783.41;5091934;28;20223;-60
2022/03/12 04:54:00;;;;;;;4.63;3.37;;;0.90;91.20;;;1.55;36.11;-19779.47;5091758;28;20227;-60
2022/03/12 04:56:28;;;;;;;3.97;3.07;;;0.90;91.20;;;1.52;36.18;-19778.63;5091857;28;20327;-60
2022/03/12 04:58:56;;;;;;;4.73;3.30;;;0.90;91.20;;;1.56;36.15;-19780.00;5091853;28;20223;-62
2022/03/12 05:01:25;;;;;;;4.60;3.20;;;0.90;91.20;;;1.45;36.14;-19776.25;5091945;28;20207;-61
2022/03/12 05:03:54;;;;;;;4.57;3.30;;;0.90;91.20;;;1.45;36.28;-19776.25;5092102;28;20204;-60
2022/03/12 05:06:23;;;;;;;5.27;3.53;;;0.80;91.10;;;1.55;36.07;-19779.47;5091336;28;20312;-60
2022/03/12 05:08:53;;;;;;;4.60;3.10;;;0.80;91.20;;;1.43;36.36;-19775.38;5091662;28;20241;-60
2022/03/12 05:11:21;;;;;;;4.23;3.20;;;0.80;91.10;;;1.32;36.71;-19771.78;5091049;28;20222;-60
2022/03/12 05:13:53;;;;;;;5.13;3.50;;;0.70;91.40;;;1.44;35.97;-19775.88;5091401;28;20223;-60
2022/03/12 05:16:21;;;;;;;3.97;3.00;;;0.70;91.00;;;1.48;36.05;-19777.09;5091684;28;20242;-61
2022/03/12 05:18:49;;;;;;;5.27;3.10;;;0.80;91.10;;;1.53;35.72;-19778.97;5091653;28;20214;-60
2022/03/12 05:21:17;;;;;;;4.73;3.30;;;0.80;91.00;;;1.69;35.39;-19784.28;5092206;28;20233;-60
2022/03/12 05:23:45;;;;;;;4.43;3.30;;;0.90;90.80;;;1.75;35.07;-19786.50;5091292;28;20275;-61
2022/03/12 05:26:15;;;;;;;4.57;3.27;;;0.90;90.60;;;1.59;35.34;-19780.84;5091511;28;20231;-60
2022/03/12 05:28:43;;;;;;;4.40;3.10;;;0.90;90.60;;;1.63;35.49;-19782.22;5091173;28;20220;-59
2022/03/12 05:31:13;;;;;;;5.67;3.30;;;0.90;90.70;;;1.42;35.72;-19775.03;5091717;28;20206;-60
2022/03/12 05:33:46;;;;;;;4.50;3.43;;;0.90;90.70;;;1.40;35.93;-19774.53;5091440;28;20640;-61
2022/03/12 05:36:14;;;;;;;4.27;3.37;;;0.80;90.90;;;1.47;35.78;-19776.91;5091195;28;20223;-60
2022/03/12 05:38:42;;;;;;;4.93;3.43;;;0.80;91.00;;;1.58;35.71;-19780.69;5091258;28;20321;-59
2022/03/12 05:41:11;;;;;;;5.63;4.20;;;0.80;90.70;;;1.68;35.37;-19783.94;5091225;28;20215;-60
2022/03/12 05:43:46;;;;;;;6.20;3.83;;;0.80;90.70;;;1.61;34.83;-19781.53;5091627;28;20228;-60
2022/03/12 05:46:21;;;;;;;6.83;3.70;;;0.90;90.30;;;1.61;35.09;-19781.69;5091578;28;20526;-58
2022/03/12 05:48:51;;;;;;;5.10;3.30;;;0.90;90.40;;;1.67;35.14;-19783.59;5091286;28;20214;-61
2022/03/12 05:51:19;;;;;;;5.17;3.80;;;1.00;90.40;;;1.69;35.16;-19784.44;5091031;28;20790;-61
2022/03/12 05:53:49;;;;;;;4.07;3.17;;;1.00;90.40;;;1.85;34.52;-19789.91;5090897;28;20515;-60
2022/03/12 05:56:17;;;;;;;5.50;3.50;;;1.00;90.30;;;1.72;34.98;-19785.47;5091011;28;20239;-59
2022/03/12 05:58:46;;;;;;;5.57;3.43;;;1.00;90.40;;;1.74;34.57;-19786.16;5090730;28;20238;-60
2022/03/12 06:01:14;;;;;;;4.17;3.60;;;1.00;90.20;;;1.64;35.02;-19782.56;5091967;28;20631;-60
2022/03/12 06:03:42;;;;;;;4.60;3.90;;;1.00;90.20;;;1.78;35.50;-19787.34;5090917;28;20283;-60
2022/03/12 06:06:10;;;;;;;5.33;3.37;;;1.00;90.60;;;1.95;34.56;-19793.16;5090857;28;20228;-59
2022/03/12 06:08:40;;;;;;;4.03;3.10;;;1.10;90.30;;;2.04;34.63;-19796.25;5090633;28;20620;-60
2022/03/12 06:11:09;;;;;;;4.83;3.40;;;1.20;90.30;;;2.15;34.20;-19800.16;5091040;28;20266;-62
2022/03/12 06:13:39;;;;;;;5.77;3.37;;;1.30;90.10;;;2.26;33.83;-19803.75;5090454;28;20253;-60
2022/03/12 06:16:08;;;;;;;4.73;3.10;;;1.40;89.50;;;2.00;34.35;-19795.03;5091391;28;20249;-60
2022/03/12 06:18:38;;;;;;;6.27;3.50;;;1.40;89.70;;;2.08;33.86;-19797.59;5090292;28;20228;-60
2022/03/12 06:21:08;;;;;;;3.60;3.30;;;1.40;89.10;;;2.06;34.18;-19797.09;5090742;28;20490;-60
2022/03/12 06:23:36;;;;;;;4.77;3.33;;;1.40;89.30;;;2.14;34.27;-19799.81;5091416;28;20248;-61
2022/03/12 06:26:15;;;;;;;4.43;3.40;;;1.50;90.10;;;2.17;34.12;-19800.84;5094982;28;20230;-61
2022/03/12 06:28:44;;;;;;;4.70;3.40;;;1.50;89.60;;;2.32;33.73;-19805.97;5094353;28;20698;-60
2022/03/12 06:31:14;;;;;;;4.60;3.67;;;1.60;89.30;;;2.62;33.31;-19815.91;5095414;28;20307;-62
2022/03/12 06:33:43;;;;;;;6.70;3.17;;;1.70;88.60;;;2.79;33.31;-19821.88;5094466;28;20238;-60
2022/03/12 06:36:12;;;;;;;5.00;3.80;;;1.80;89.20;;;2.66;33.75;-19817.25;5094623;28;20247;-60
2022/03/12 06:38:41;;;;;;;5.80;3.63;;;1.90;89.20;;;2.59;33.63;-19814.88;5094344;28;20216;-60
2022/03/12 06:41:09;;;;;;;4.53;3.80;;;1.90;88.70;;;2.74;32.67;-19820.16;5094429;28;20797;-60
2022/03/12 06:43:42;;;;;;;5.80;3.83;;;2.00;87.80;;;2.82;33.22;-19822.91;5094408;28;20203;-60
2022/03/12 06:46:15;;;;;;;5.57;3.60;;;2.10;88.40;;;2.83;33.22;-19823.25;5095346;28;20208;-60
2022/03/12 06:48:45;;;;;;;3.80;3.40;;;2.20;88.30;;;2.90;33.26;-19825.63;5094478;28;20366;-61
2022/03/12 06:51:13;;;;;;;5.60;3.57;;;2.20;88.20;;;2.98;33.30;-19828.19;5094312;28;20225;-61
2022/03/12 06:53:41;;;;;;;6.40;3.63;;;2.30;88.60;;;3.07;33.01;-19831.44;5094229;28;20242;-60
2022/03/12 06:56:09;;;;;;;4.47;3.90;;;2.40;87.90;;;3.45;32.23;-19844.44;5094277;28;20307;-59
2022/03/12 06:58:38;;;;;;;6.27;3.47;;;2.50;87.60;;;3.77;31.34;-19855.22;5094000;28;20295;-60
2022/03/12 07:01:06;;;;;;;6.37;3.93;;;2.70;86.70;;;3.55;31.60;-19847.69;5094598;28;20287;-61
2022/03/12 07:03:36;;;;;;;4.17;3.43;;;2.80;86.30;;;3.81;31.16;-19856.41;5094106;28;20279;-61
2022/03/12 07:06:04;;;;;;;4.50;3.40;;;2.90;85.30;;;3.79;30.93;-19855.91;5094122;28;20230;-60
2022/03/12 07:08:32;;;;;;;5.67;3.63;;;3.00;85.20;;;3.82;31.25;-19856.75;5093798;28;20661;-60
2022/03/12 07:11:01;;;;;;;6.07;3.80;;;3.10;85.30;;;3.95;31.04;-19861.19;5093974;28;20224;-59
2022/03/12 07:13:30;;;;;;;5.53;3.40;;;3.20;85.30;;;4.10;30.79;-19866.31;5093698;28;20737;-60
2022/03/12 07:15:59;;;;;;;5.50;3.27;;;3.20;85.20;;;4.08;30.72;-19865.63;5094438;28;20661;-59
2022/03/12 07:18:27;;;;;;;3.90;2.90;;;3.30;84.60;;;4.23;30.54;-19870.78;5093702;28;20257;-60
2022/03/12 07:20:56;;;;;;;4.67;3.30;;;3.40;84.60;;;4.32;30.48;-19874.03;5093839;28;20254;-61
2022/03/12 07:23:24;;;;;;;5.13;3.60;;;3.50;84.70;;;4.49;30.18;-19879.66;5090372;28;20212;-61
2022/03/12 07:25:55;;;;;;;3.80;2.93;;;3.60;84.00;;;4.84;28.79;-19891.63;5093203;28;20265;-60
2022/03/12 07:28:23;;;;;;;3.30;2.80;;;3.80;82.60;;;4.89;29.21;-19893.31;5089805;28;20197;-60
2022/03/12 07:30:51;;;;;;;5.67;3.53;;;3.90;82.70;;;4.91;28.87;-19894.00;5091602;28;20293;-61
2022/03/12 07:33:20;;;;;;;4.13;3.70;;;4.00;81.90;;;4.85;28.80;-19892.13;5089366;28;20220;-62
2022/03/12 07:35:47;;;;;;;4.43;3.27;;;4.00;81.30;;;4.93;28.75;-19894.88;5092553;28;20632;-60
2022/03/12 07:38:17;;;;;;;4.17;3.30;;;4.10;81.30;;;5.16;28.29;-19902.56;5093319;28;20549;-61
2022/03/12 07:40:45;;;;;;;7.20;3.40;;;4.20;81.10;;;5.24;28.42;-19905.31;5093478;28;20222;-61
2022/03/12 07:43:13;;;;;;;6.70;3.33;;;4.30;81.30;;;5.21;28.50;-19904.09;5093937;28;20297;-60
2022/03/12 07:45:42;;;;;;;5.40;3.33;;;4.40;81.50;;;5.18;28.64;-19903.06;5092868;28;20610;-63
2022/03/12 07:48:10;;;;;;;3.90;3.50;;;4.40;81.20;;;5.30;29.08;-19907.19;5092094;28;20220;-62
2022/03/12 07:51:00;;;;;;;4.40;3.80;;;4.50;82.30;;;5.61;29.02;-19917.94;5092428;28;20228;-61
2022/03/12 07:53:30;;;;;;;4.40;3.27;;;4.60;82.30;;;5.60;28.33;-19917.44;5092987;28;20604;-60
2022/03/12 07:55:59;;;;;;;6.43;3.73;;;4.70;81.50;;;5.71;28.45;-19921.38;5092798;28;20586;-62
2022/03/12 07:58:28;;;;;;;3.73;3.00;;;4.80;81.50;;;5.84;28.11;-19925.81;5093007;28;20207;-60
2022/03/12 08:00:58;;;;;;;5.87;3.67;;;4.90;80.60;;;5.96;28.15;-19929.75;5091529;28;20452;-59
2022/03/12 08:03:28;;;;;;;4.50;3.53;;;5.00;80.80;;;6.23;27.34;-19938.97;5092624;28;20255;-61
2022/03/12 08:05:58;;;;;;;4.57;3.50;;;5.20;79.60;;;6.29;27.56;-19941.03;5089773;28;20301;-59
2022/03/12 08:08:26;;;;;;;4.10;3.50;;;5.30;79.80;;;6.30;27.59;-19941.38;5090671;28;20212;-60
2022/03/12 08:13:44;;;;;;;4.40;3.50;;;5.40;79.80;;;6.41;26.79;-19944.94;5089523;28;20220;-63
2022/03/12 08:16:15;;;;;;;5.47;3.47;;;5.50;78.40;;;6.50;26.63;-19948.19;5091958;28;20295;-60
2022/03/12 08:18:44;;;;;;;4.93;3.83;;;5.50;78.10;;;6.54;26.23;-19949.41;5089656;28;20228;-60
2022/03/12 08:21:15;;;;;;;4.27;3.40;;;5.60;77.20;;;6.65;26.24;-19953.16;5090971;28;20293;-60
2022/03/12 08:23:43;;;;;;;4.60;3.50;;;5.70;77.00;;;6.75;26.10;-19956.75;5087824;28;20713;-62
2022/03/12 08:26:12;;;;;;;6.50;3.83;;;5.80;76.90;;;7.02;25.54;-19965.78;5089935;28;20226;-60
2022/03/12 08:28:41;;;;;;;4.00;3.60;;;5.90;76.00;;;7.04;25.72;-19966.47;5091967;28;20248;-60
2022/03/12 08:31:10;;;;;;;4.03;3.20;;;6.00;76.10;;;7.18;25.32;-19971.44;5092764;28;20208;-60
2022/03/12 08:33:38;;;;;;;5.07;3.30;;;6.10;75.60;;;7.15;25.34;-19970.41;5089711;28;20223;-59
2022/03/12 08:36:07;;;;;;;5.13;4.17;;;6.20;75.20;;;7.21;24.94;-19972.28;5087918;28;20224;-60
2022/03/12 08:38:38;;;;;;;4.77;3.83;;;6.20;74.40;;;7.41;24.59;-19979.13;5088526;28;20270;-61
2022/03/12 08:41:08;;;;;;;4.73;3.70;;;6.30;74.00;;;7.50;24.62;-19982.19;5090375;28;20222;-63
2022/03/12 08:43:39;;;;;;;4.53;3.67;;;6.40;74.50;;;7.66;25.51;-19987.66;5090951;28;20198;-61
2022/03/12 08:46:09;;;;;;;5.57;3.50;;;6.50;75.60;;;7.68;26.50;-19988.19;5090753;28;20282;-61
2022/03/12 08:48:38;;;;;;;3.97;3.40;;;6.50;76.40;;;7.70;25.00;-19989.03;5091588;28;20246;-60
2022/03/12 08:51:06;;;;;;;5.17;3.57;;;6.60;74.90;;;7.80;25.29;-19992.47;5092210;28;20315;-61
2022/03/12 08:53:34;;;;;;;4.60;3.63;;;6.70;75.20;;;7.89;25.06;-19995.34;5092024;28;20342;-61
2022/03/12 08:56:04;;;;;;;5.03;3.50;;;6.80;75.60;;;7.99;24.78;-19998.94;5091986;28;20257;-60
2022/03/12 08:58:33;;;;;;;5.83;3.30;;;6.90;74.90;;;8.21;24.96;-20006.47;5091411;28;20678;-59
2022/03/12 09:01:08;;;;;;;5.50;4.00;;;7.00;74.80;;;7.97;25.21;-19998.09;5088981;28;20226;-60
2022/03/12 09:03:37;;;;;;;4.73;3.63;;;7.00;74.30;;;8.13;24.67;-20003.72;5088567;28;20218;-61
2022/03/12 09:06:07;;;;;;;3.73;3.27;;;6.90;74.00;;;7.78;25.96;-19991.59;5091492;28;20265;-61
2022/03/12 09:08:35;;;;;;;6.90;3.50;;;6.80;76.00;;;7.92;24.90;-19996.56;5091356;28;20535;-60
2022/03/12 09:11:03;;;;;;;7.13;3.80;;;6.80;74.30;;;7.90;25.44;-19995.88;5091383;28;20222;-61
2022/03/12 09:13:31;;;;;;;4.70;3.80;;;6.70;76.10;;;7.87;25.07;-19994.69;5074721;28;20313;-60
2022/03/12 09:15:59;;;;;;;4.80;3.60;;;6.80;74.60;;;7.94;25.19;-19997.25;5091441;28;20314;-60
2022/03/12 09:18:29;;;;;;;5.33;3.73;;;6.90;74.70;;;8.14;25.16;-20003.91;5086069;28;20211;-61
2022/03/12 09:20:57;;;;;;;4.93;3.53;;;7.00;74.60;;;8.32;25.09;-20010.06;5090905;28;20314;-61
2022/03/12 09:23:25;;;;;;;4.77;3.40;;;7.10;74.60;;;8.38;25.02;-20012.09;5092292;28;20227;-60
2022/03/12 09:25:53;;;;;;;5.53;3.60;;;7.20;74.40;;;8.44;25.13;-20014.16;5091520;28;20345;-60
2022/03/12 09:28:22;;;;;;;4.97;3.47;;;7.30;74.80;;;8.60;24.93;-20019.63;5091544;28;20333;-60
2022/03/12 09:30:51;;;;;;;4.23;3.40;;;7.40;74.70;;;8.71;24.73;-20023.22;5092040;28;20297;-60
2022/03/12 09:33:22;;;;;;;5.67;3.77;;;7.60;74.10;;;8.69;24.34;-20022.72;5089713;28;20218;-61
2022/03/12 09:35:53;;;;;;;6.10;3.60;;;7.60;73.10;;;8.84;24.00;-20027.84;5091107;28;20227;-61
2022/03/12 09:38:22;;;;;;;4.10;3.70;;;7.70;72.70;;;9.06;23.46;-20035.19;5091517;28;20284;-60
2022/03/12 09:40:50;;;;;;;4.97;3.37;;;7.80;71.60;;;8.97;23.17;-20032.09;5091292;28;20223;-61
2022/03/12 09:43:18;;;;;;;4.80;3.87;;;7.90;70.60;;;8.91;23.69;-20030.06;5090097;28;20287;-61
2022/03/12 09:45:47;;;;;;;4.37;3.60;;;7.90;71.40;;;8.95;23.63;-20031.41;5091836;28;20283;-60
2022/03/12 09:48:19;;;;;;;4.93;4.00;;;7.90;71.10;;;8.95;23.58;-20031.41;5090432;28;20319;-60
2022/03/12 09:50:47;;;;;;;4.80;3.93;;;7.90;71.30;;;9.05;23.93;-20035.00;5084138;28;20304;-60
2022/03/12 09:53:17;;;;;;;4.43;3.67;;;8.00;71.90;;;9.12;23.63;-20037.41;5090331;28;20597;-61
2022/03/12 09:55:45;;;;;;;4.20;3.60;;;8.00;71.20;;;9.28;23.94;-20042.88;5091010;28;20341;-62
2022/03/12 09:58:13;;;;;;;5.07;3.97;;;8.20;71.90;;;9.35;23.54;-20045.25;5090709;28;20204;-62
2022/03/12 10:00:41;;;;;;;4.70;3.60;;;8.20;71.30;;;9.53;23.21;-20051.22;5090629;28;20259;-61
2022/03/12 10:03:11;;;;;;;4.63;3.53;;;8.30;71.30;;;9.69;22.81;-20056.69;5090151;28;20228;-62
2022/03/12 10:05:40;;;;;;;4.00;3.40;;;8.40;70.30;;;9.66;23.17;-20055.84;5090590;28;20641;-61
2022/03/12 10:08:08;;;;;;;4.70;3.67;;;8.50;70.50;;;9.63;22.94;-20054.81;5090651;28;20235;-61
2022/03/12 10:10:38;;;;;;;5.60;3.60;;;8.50;69.30;;;9.73;23.44;-20058.06;5090814;28;20290;-61
2022/03/12 10:13:06;;;;;;;4.83;3.70;;;8.50;71.50;;;9.82;23.40;-20061.13;5091026;28;20290;-64
2022/03/12 10:15:34;;;;;;;4.17;3.27;;;8.50;71.30;;;9.84;23.07;-20061.81;5090849;28;20480;-62
2022/03/12 10:18:02;;;;;;;5.73;4.03;;;8.60;70.10;;;9.93;22.62;-20064.72;5090495;28;20246;-60
2022/03/12 10:20:31;;;;;;;4.83;3.50;;;8.70;69.70;;;10.02;23.09;-20067.97;5090595;28;20750;-60
2022/03/12 10:22:59;;;;;;;5.27;3.60;;;8.80;70.30;;;9.92;22.13;-20064.56;5090562;28;20734;-62
2022/03/12 10:25:28;;;;;;;4.87;3.43;;;8.80;67.80;;;10.02;22.80;-20067.81;5090641;28;20227;-61
2022/03/12 10:27:57;;;;;;;6.00;3.83;;;8.80;69.80;;;10.18;22.85;-20073.28;5090881;28;20311;-62
2022/03/12 10:30:26;;;;;;;5.73;3.97;;;9.00;69.30;;;10.22;21.85;-20074.63;5090518;28;20220;-61
2022/03/12 10:32:54;;;;;;;4.63;3.50;;;9.00;67.40;;;10.34;22.48;-20078.75;5089983;28;20226;-61
2022/03/12 10:35:23;;;;;;;4.50;3.73;;;9.10;68.60;;;10.27;22.51;-20076.53;5090934;28;20231;-63
2022/03/12 10:37:54;;;;;;;8.67;3.87;;;9.10;68.60;;;10.29;22.43;-20077.19;5090669;28;20307;-61